Time;durP1;ratioP1;P1;durP2;ratioP2;P2;SDS_P1;SDS_P2;PMS_P1;PMS_P2;Temp;Humidity;BMP_temperature;BMP_pressure;BME280_temperature;BME280_humidity;BME280_pressure;Samples;Min_cycle;Max_cycle;Signal;HPM_P1;HPM_P2
2023/03/25 00:00:21;;;;;;;5.95;3.88;;;8.20;99.90;;;;;;5021103;28;20603;-60
2023/03/25 00:02:49;;;;;;;6.50;3.45;;;8.20;99.90;;;;;;5020600;28;20045;-60
2023/03/25 00:05:17;;;;;;;4.93;3.70;;;8.10;99.90;;;;;;5023660;28;20400;-61
2023/03/25 00:07:43;;;;;;;7.22;3.78;;;8.10;99.90;;;;;;5020814;28;20076;-61
2023/03/25 00:10:10;;;;;;;5.50;3.95;;;8.00;99.90;;;;;;5021310;28;20030;-59
2023/03/25 00:12:36;;;;;;;4.80;3.97;;;8.00;99.90;;;;;;5024273;28;20033;-59
2023/03/25 00:15:01;;;;;;;5.30;3.63;;;8.00;99.90;;;;;;5020635;28;20408;-63
2023/03/25 00:17:30;;;;;;;8.00;4.32;;;8.00;99.90;;;;;;5019058;28;20069;-61
2023/03/25 00:20:04;;;;;;;6.78;3.88;;;8.00;99.90;;;;;;5016812;28;20071;-55
2023/03/25 00:22:30;;;;;;;5.88;4.55;;;8.00;99.90;;;;;;5025597;28;20168;-58
2023/03/25 00:24:55;;;;;;;6.88;3.67;;;8.00;99.90;;;;;;5024904;28;20108;-60
2023/03/25 00:27:21;;;;;;;6.80;4.15;;;8.00;99.90;;;;;;5027782;28;20025;-61
2023/03/25 00:29:47;;;;;;;7.50;4.53;;;8.00;99.90;;;;;;5022471;28;20366;-56
2023/03/25 00:32:14;;;;;;;6.78;5.30;;;8.00;99.90;;;;;;5024008;28;20101;-60
2023/03/25 00:34:40;;;;;;;4.40;4.00;;;8.00;99.90;;;;;;5024155;28;20488;-61
2023/03/25 00:37:08;;;;;;;4.82;3.60;;;7.90;99.90;;;;;;5022738;28;20104;-57
2023/03/25 00:39:34;;;;;;;6.55;4.15;;;7.90;99.90;;;;;;5023703;28;20080;-61
2023/03/25 00:42:00;;;;;;;6.53;4.25;;;7.80;99.90;;;;;;5021449;28;20025;-60
2023/03/25 00:44:26;;;;;;;5.68;4.00;;;7.80;99.90;;;;;;5025591;28;20037;-57
2023/03/25 00:46:52;;;;;;;6.22;4.10;;;7.80;99.90;;;;;;5022799;28;20053;-60
2023/03/25 00:49:17;;;;;;;7.20;3.67;;;7.80;99.90;;;;;;5018885;28;20084;-61
2023/03/25 00:51:44;;;;;;;5.97;4.05;;;7.80;99.90;;;;;;5024042;28;20046;-60
2023/03/25 00:54:10;;;;;;;9.85;4.78;;;7.80;99.90;;;;;;5027085;28;20053;-62
2023/03/25 00:56:36;;;;;;;6.45;4.85;;;7.80;99.90;;;;;;5023317;28;20025;-62
2023/03/25 00:59:01;;;;;;;6.15;4.38;;;7.80;99.90;;;;;;5021203;28;20029;-60
2023/03/25 01:01:28;;;;;;;6.70;4.75;;;7.80;99.90;;;;;;5024687;28;20053;-59
2023/03/25 01:03:58;;;;;;;8.63;4.13;;;7.80;99.90;;;;;;5016124;28;20029;-61
2023/03/25 01:06:43;;;;;;;7.03;4.75;;;7.80;99.90;;;;;;5024139;28;20040;-62
2023/03/25 01:09:15;;;;;;;6.85;4.40;;;7.80;99.90;;;;;;5021574;28;20031;-62
2023/03/25 01:11:42;;;;;;;9.57;4.60;;;7.80;99.90;;;;;;5021494;28;20058;-58
2023/03/25 01:14:13;;;;;;;7.63;4.28;;;7.90;99.90;;;;;;5019169;28;20197;-59
2023/03/25 01:16:39;;;;;;;8.70;4.50;;;7.90;99.90;;;;;;5015651;28;20042;-60
2023/03/25 01:19:05;;;;;;;6.72;4.57;;;7.90;99.90;;;;;;5006401;28;20116;-60
2023/03/25 01:21:34;;;;;;;8.77;4.75;;;7.90;99.90;;;;;;5006488;28;20034;-58
2023/03/25 01:23:59;;;;;;;7.38;4.68;;;8.00;99.90;;;;;;5008639;28;20273;-57
2023/03/25 01:26:25;;;;;;;8.38;5.68;;;8.00;99.90;;;;;;5022927;28;20052;-58
2023/03/25 01:28:52;;;;;;;7.57;4.55;;;8.00;99.90;;;;;;5024129;28;20135;-61
2023/03/25 01:31:18;;;;;;;8.73;4.32;;;8.10;99.90;;;;;;5017852;28;20030;-57
2023/03/25 01:33:44;;;;;;;7.35;5.13;;;8.20;99.90;;;;;;5024170;28;20044;-58
2023/03/25 01:36:11;;;;;;;7.80;4.80;;;8.20;99.90;;;;;;5024674;28;20084;-60
2023/03/25 01:38:38;;;;;;;7.50;5.20;;;8.10;99.90;;;;;;5021846;28;20300;-58
2023/03/25 01:41:05;;;;;;;8.02;5.20;;;8.20;99.90;;;;;;5022316;28;20022;-60
2023/03/25 01:43:31;;;;;;;6.82;4.97;;;8.20;99.90;;;;;;5019442;28;20491;-59
2023/03/25 01:45:57;;;;;;;6.28;4.80;;;8.20;99.90;;;;;;5023618;28;20084;-58
2023/03/25 01:48:26;;;;;;;5.72;4.32;;;8.20;99.90;;;;;;5018432;28;20006;-54
2023/03/25 01:50:59;;;;;;;7.82;4.50;;;8.30;99.90;;;;;;5039567;28;20021;-60
2023/03/25 01:53:28;;;;;;;6.85;4.15;;;8.20;99.90;;;;;;5019883;28;20579;-58
2023/03/25 01:55:55;;;;;;;8.50;4.88;;;8.30;99.90;;;;;;5014307;28;20567;-59
2023/03/25 01:58:22;;;;;;;6.05;4.10;;;8.40;99.90;;;;;;5014142;28;20060;-59
2023/03/25 02:00:49;;;;;;;7.25;3.50;;;8.40;99.90;;;;;;5017622;28;20050;-59
2023/03/25 02:03:19;;;;;;;5.95;4.22;;;8.40;99.90;;;;;;5017023;28;20048;-61
2023/03/25 02:06:02;;;;;;;5.00;3.72;;;8.40;99.90;;;;;;5019173;28;20136;-59
2023/03/25 02:08:31;;;;;;;8.75;4.07;;;8.40;99.90;;;;;;5016245;28;20084;-57
2023/03/25 02:10:57;;;;;;;4.60;3.17;;;8.50;99.90;;;;;;5020262;28;20025;-57
2023/03/25 02:13:23;;;;;;;8.02;4.25;;;8.40;99.90;;;;;;5023162;28;20021;-59
2023/03/25 02:16:07;;;;;;;6.85;3.72;;;8.40;99.90;;;;;;5017976;28;20025;-62
2023/03/25 02:19:00;;;;;;;9.63;3.97;;;8.50;99.90;;;;;;5023451;28;20116;-56
2023/03/25 02:21:34;;;;;;;7.80;4.10;;;8.50;99.90;;;;;;5020209;28;20036;-54
2023/03/25 02:24:12;;;;;;;7.82;4.38;;;8.60;99.90;;;;;;5015995;28;20041;-59
2023/03/25 02:27:25;;;;;;;5.85;3.72;;;8.50;99.90;;;;;;5025027;28;20500;-55
2023/03/25 02:30:15;;;;;;;7.47;4.07;;;8.60;99.90;;;;;;5012575;28;20040;-59
2023/03/25 02:33:17;;;;;;;5.53;3.35;;;8.50;99.90;;;;;;5018376;28;20056;-57
2023/03/25 02:36:22;;;;;;;4.95;3.85;;;8.60;99.90;;;;;;5022866;28;20025;-59
2023/03/25 02:38:57;;;;;;;7.63;5.10;;;8.50;99.90;;;;;;5026367;28;20029;-57
2023/03/25 02:42:13;;;;;;;7.90;3.53;;;8.50;99.90;;;;;;5019024;28;20061;-59
2023/03/25 02:45:06;;;;;;;5.15;3.38;;;8.40;99.90;;;;;;4994517;28;20034;-58
2023/03/25 02:47:37;;;;;;;9.55;3.20;;;8.40;99.90;;;;;;4973091;28;20049;-55
2023/03/25 02:50:10;;;;;;;8.48;3.90;;;8.40;99.90;;;;;;5004477;28;20403;-59
2023/03/25 02:52:52;;;;;;;4.65;3.75;;;8.40;99.90;;;;;;5021225;28;20025;-60
2023/03/25 02:55:20;;;;;;;8.20;3.88;;;8.30;99.90;;;;;;5016021;28;20033;-56
2023/03/25 02:57:51;;;;;;;8.35;3.67;;;8.40;99.90;;;;;;5017430;28;20030;-57
2023/03/25 03:00:21;;;;;;;6.78;4.18;;;8.30;99.90;;;;;;5015290;28;20429;-59
2023/03/25 03:02:58;;;;;;;6.40;3.58;;;8.30;99.90;;;;;;5009325;28;20053;-59
2023/03/25 03:05:33;;;;;;;7.63;4.00;;;8.30;99.90;;;;;;5019118;28;20022;-57
2023/03/25 03:08:08;;;;;;;6.93;3.70;;;8.30;99.90;;;;;;5007019;28;20029;-61
2023/03/25 03:11:05;;;;;;;7.57;3.88;;;8.20;99.90;;;;;;5022904;28;20026;-57
2023/03/25 03:13:49;;;;;;;4.72;3.25;;;8.20;99.90;;;;;;5017915;28;20057;-58
2023/03/25 03:16:18;;;;;;;7.95;4.30;;;8.20;99.90;;;;;;5013951;28;20038;-59
2023/03/25 03:18:57;;;;;;;5.60;3.60;;;8.20;99.90;;;;;;5021186;28;20448;-54
2023/03/25 03:21:31;;;;;;;7.10;3.45;;;8.30;99.90;;;;;;5016010;28;20103;-54
2023/03/25 03:24:01;;;;;;;9.55;3.90;;;8.30;99.90;;;;;;5016312;28;20026;-59
2023/03/25 03:26:43;;;;;;;5.32;3.30;;;8.30;99.90;;;;;;5014879;28;20091;-60
2023/03/25 03:29:18;;;;;;;7.45;3.30;;;8.30;99.90;;;;;;5032208;28;20116;-55
2023/03/25 03:31:53;;;;;;;6.65;3.50;;;8.30;99.90;;;;;;5003247;28;20496;-59
2023/03/25 03:34:33;;;;;;;11.63;3.60;;;8.30;99.90;;;;;;5020393;28;20159;-58
2023/03/25 03:37:00;;;;;;;7.45;3.03;;;8.30;99.90;;;;;;5013154;28;20351;-60
2023/03/25 03:39:35;;;;;;;6.18;3.25;;;8.30;99.90;;;;;;5022334;28;20041;-57
2023/03/25 03:42:17;;;;;;;6.03;3.20;;;8.20;99.90;;;;;;5012408;28;20075;-60
2023/03/25 03:44:48;;;;;;;6.28;3.45;;;8.20;99.90;;;;;;5008455;28;20113;-59
2023/03/25 03:47:20;;;;;;;5.38;3.92;;;8.20;99.90;;;;;;5005748;28;20100;-57
2023/03/25 03:49:52;;;;;;;9.23;4.03;;;8.20;99.90;;;;;;5023037;28;20335;-58
2023/03/25 03:52:41;;;;;;;7.32;4.32;;;8.10;99.90;;;;;;5027576;28;20018;-56
2023/03/25 03:55:12;;;;;;;6.30;3.45;;;8.10;99.90;;;;;;5009042;28;20034;-59
2023/03/25 03:57:45;;;;;;;6.45;3.33;;;8.10;99.90;;;;;;5018960;28;20033;-58
2023/03/25 04:00:21;;;;;;;7.35;3.72;;;8.10;99.90;;;;;;5012367;28;20557;-57
2023/03/25 04:03:13;;;;;;;4.68;3.45;;;8.10;99.90;;;;;;5012128;28;20060;-56
2023/03/25 04:05:43;;;;;;;7.05;3.33;;;8.10;99.90;;;;;;5020208;28;20092;-55
2023/03/25 04:08:27;;;;;;;5.60;3.90;;;8.10;99.90;;;;;;5024443;28;20061;-57
2023/03/25 04:11:03;;;;;;;4.70;3.38;;;8.10;99.90;;;;;;5023491;28;20030;-60
2023/03/25 04:13:34;;;;;;;;;;;8.00;99.90;;;;;;5021075;28;20029;-52
2023/03/25 04:16:00;;;;;;;4.88;3.28;;;8.00;99.90;;;;;;5013747;28;19913;-59
2023/03/25 04:18:27;;;;;;;8.80;4.30;;;8.00;99.90;;;;;;5009606;28;20404;-56
2023/03/25 04:20:53;;;;;;;6.15;3.50;;;8.00;99.90;;;;;;5021309;28;20086;-56
2023/03/25 04:23:20;;;;;;;7.80;3.70;;;8.00;99.90;;;;;;5027000;28;20025;-52
2023/03/25 04:25:48;;;;;;;6.57;3.50;;;8.00;99.90;;;;;;5019413;28;20017;-54
2023/03/25 04:28:16;;;;;;;6.05;4.07;;;8.00;99.90;;;;;;5022666;28;20060;-57
2023/03/25 04:30:44;;;;;;;6.47;3.55;;;8.00;99.90;;;;;;5019948;28;20025;-58
2023/03/25 04:33:10;;;;;;;5.05;3.95;;;8.00;99.90;;;;;;5022654;28;20431;-58
2023/03/25 04:35:36;;;;;;;5.35;3.50;;;8.00;99.90;;;;;;5020688;28;20098;-56
2023/03/25 04:38:02;;;;;;;7.97;3.30;;;8.00;99.90;;;;;;5022402;28;20499;-55
2023/03/25 04:40:28;;;;;;;9.80;3.85;;;8.00;99.90;;;;;;5016917;28;20479;-55
2023/03/25 04:42:55;;;;;;;5.28;3.17;;;8.10;99.90;;;;;;5023243;28;20167;-57
2023/03/25 04:45:21;;;;;;;5.97;3.03;;;8.10;99.90;;;;;;5025920;28;20048;-59
2023/03/25 04:47:48;;;;;;;5.97;3.08;;;8.10;99.90;;;;;;5025390;28;20464;-59
2023/03/25 04:50:21;;;;;;;4.72;3.10;;;8.10;99.90;;;;;;5027863;28;20024;-61
2023/03/25 04:52:51;;;;;;;3.60;2.92;;;8.10;99.90;;;;;;5021036;28;20573;-59
2023/03/25 04:55:18;;;;;;;5.40;2.45;;;8.00;99.90;;;;;;5025038;28;20021;-60
2023/03/25 04:57:45;;;;;;;4.22;2.35;;;8.00;99.90;;;;;;5027158;28;20373;-58
2023/03/25 05:00:13;;;;;;;5.25;2.17;;;7.90;99.90;;;;;;5022540;28;20420;-61
2023/03/25 05:02:44;;;;;;;3.75;2.25;;;7.90;99.90;;;;;;5025949;28;20037;-60
2023/03/25 05:05:16;;;;;;;5.30;2.47;;;7.80;99.90;;;;;;5021112;28;20531;-59
2023/03/25 05:07:45;;;;;;;5.30;2.45;;;7.80;99.90;;;;;;5017121;28;20030;-61
2023/03/25 05:10:11;;;;;;;3.90;2.35;;;7.70;99.90;;;;;;5017143;28;20093;-58
2023/03/25 05:12:37;;;;;;;7.20;3.00;;;7.70;99.90;;;;;;5027452;28;20021;-60
2023/03/25 05:15:03;;;;;;;6.35;3.80;;;7.60;99.90;;;;;;5020724;28;20031;-61
2023/03/25 05:17:28;;;;;;;6.43;2.80;;;7.60;99.90;;;;;;5018732;28;20519;-61
2023/03/25 05:19:55;;;;;;;2.72;2.47;;;7.60;99.90;;;;;;5018287;28;20039;-60
2023/03/25 05:22:21;;;;;;;3.95;3.15;;;7.60;99.90;;;;;;5012004;28;20040;-62
2023/03/25 05:24:47;;;;;;;6.95;3.00;;;7.50;99.90;;;;;;5025494;28;20022;-61
2023/03/25 05:27:13;;;;;;;3.65;3.08;;;7.50;99.90;;;;;;5019555;28;20080;-61
2023/03/25 05:29:38;;;;;;;4.38;3.17;;;7.50;99.90;;;;;;5025042;28;20112;-62
2023/03/25 05:32:04;;;;;;;6.05;3.38;;;7.50;99.90;;;;;;5021978;28;20068;-62
2023/03/25 05:34:30;;;;;;;6.00;3.08;;;7.50;99.90;;;;;;5016942;28;20391;-62
2023/03/25 05:36:56;;;;;;;7.28;3.10;;;7.50;99.90;;;;;;5026660;28;20175;-62
2023/03/25 05:39:21;;;;;;;3.78;2.90;;;7.50;99.90;;;;;;5018934;28;20041;-62
2023/03/25 05:41:47;;;;;;;5.13;3.63;;;7.50;99.90;;;;;;5019191;28;20377;-62
2023/03/25 05:44:13;;;;;;;4.78;3.40;;;7.50;99.90;;;;;;5022045;28;20057;-62
2023/03/25 05:46:39;;;;;;;5.50;3.33;;;7.50;99.90;;;;;;5021278;28;20038;-63
2023/03/25 05:49:05;;;;;;;7.18;3.38;;;7.50;99.90;;;;;;5015667;28;20018;-62
2023/03/25 05:51:36;;;;;;;6.80;3.15;;;7.50;99.90;;;;;;5005883;28;20019;-62
2023/03/25 05:54:02;;;;;;;6.68;3.70;;;7.50;99.90;;;;;;5016501;28;20026;-61
2023/03/25 05:56:28;;;;;;;6.97;3.75;;;7.50;99.90;;;;;;5023468;28;20084;-60
2023/03/25 05:58:55;;;;;;;4.18;3.22;;;7.50;99.90;;;;;;5017741;28;20036;-60
2023/03/25 06:01:21;;;;;;;7.82;3.60;;;7.50;99.90;;;;;;5016058;28;20033;-60
2023/03/25 06:03:47;;;;;;;8.18;3.85;;;7.50;99.90;;;;;;5023473;28;20034;-60
2023/03/25 06:06:17;;;;;;;4.88;3.20;;;7.60;99.90;;;;;;5018563;28;20025;-62
2023/03/25 06:08:49;;;;;;;7.13;3.33;;;7.50;99.90;;;;;;5013981;28;20036;-63
2023/03/25 06:11:16;;;;;;;6.82;3.63;;;7.60;99.90;;;;;;5019280;28;20021;-59
2023/03/25 06:13:48;;;;;;;8.70;3.30;;;7.60;99.90;;;;;;5023326;28;20022;-58
2023/03/25 06:16:19;;;;;;;6.88;3.55;;;7.60;99.90;;;;;;5020928;28;20037;-57
2023/03/25 06:18:49;;;;;;;4.78;3.33;;;7.60;99.90;;;;;;5016873;28;20025;-58
2023/03/25 06:21:16;;;;;;;8.23;3.92;;;7.70;99.90;;;;;;5022978;28;20025;-55
2023/03/25 06:23:42;;;;;;;4.68;3.72;;;7.70;99.90;;;;;;5019990;28;20072;-58
2023/03/25 06:26:07;;;;;;;4.30;2.92;;;7.80;99.90;;;;;;5018751;28;20438;-59
2023/03/25 06:28:33;;;;;;;7.00;3.63;;;7.80;99.90;;;;;;5010375;28;20069;-59
2023/03/25 06:31:02;;;;;;;9.30;3.88;;;7.80;99.90;;;;;;5016296;28;20075;-60
2023/03/25 06:33:27;;;;;;;7.53;4.20;;;7.80;99.90;;;;;;5018352;28;20017;-59
2023/03/25 06:35:53;;;;;;;5.63;3.80;;;7.80;99.90;;;;;;5018142;28;20119;-62
2023/03/25 06:38:22;;;;;;;8.25;4.13;;;7.80;99.90;;;;;;5023165;28;20025;-60
2023/03/25 06:40:48;;;;;;;6.72;4.03;;;7.80;99.90;;;;;;5019682;28;20017;-62
2023/03/25 06:43:14;;;;;;;7.63;3.50;;;7.90;99.90;;;;;;5025003;28;20025;-59
2023/03/25 06:45:40;;;;;;;4.55;4.10;;;7.90;99.90;;;;;;5020680;28;20074;-60
2023/03/25 06:48:06;;;;;;;9.23;3.88;;;8.00;99.90;;;;;;5024725;28;20026;-60
2023/03/25 06:50:32;;;;;;;8.95;3.70;;;8.00;99.90;;;;;;5022400;28;20496;-61
2023/03/25 06:52:58;;;;;;;6.43;3.58;;;8.00;99.90;;;;;;5015161;28;20103;-59
2023/03/25 06:55:23;;;;;;;5.28;3.67;;;8.00;99.90;;;;;;5019808;28;20022;-56
2023/03/25 06:57:53;;;;;;;9.48;4.03;;;8.00;99.90;;;;;;5025307;28;20330;-61
2023/03/25 07:00:22;;;;;;;7.53;4.40;;;8.00;99.90;;;;;;5011210;28;20022;-60
2023/03/25 07:02:47;;;;;;;5.53;3.60;;;8.10;99.90;;;;;;5026263;28;20439;-59
2023/03/25 07:05:13;;;;;;;6.32;3.75;;;8.10;99.90;;;;;;5018117;28;20065;-63
2023/03/25 07:07:39;;;;;;;11.02;4.10;;;8.10;99.90;;;;;;5028019;28;20033;-61
2023/03/25 07:10:06;;;;;;;9.65;4.20;;;8.20;99.90;;;;;;5016896;28;20022;-61
2023/03/25 07:12:33;;;;;;;6.70;4.70;;;8.20;99.90;;;;;;5028843;28;20021;-61
2023/03/25 07:14:59;;;;;;;5.82;3.90;;;8.20;99.90;;;;;;5027711;28;20116;-61
2023/03/25 07:17:25;;;;;;;9.65;4.18;;;8.30;99.90;;;;;;5035453;28;20185;-61
2023/03/25 07:19:51;;;;;;;8.95;4.32;;;8.30;99.90;;;;;;5015108;28;20036;-60
2023/03/25 07:22:17;;;;;;;7.75;4.70;;;8.40;99.90;;;;;;5016433;28;20097;-55
2023/03/25 07:24:43;;;;;;;7.95;4.80;;;8.50;99.90;;;;;;5029098;28;20033;-60
2023/03/25 07:27:12;;;;;;;7.93;4.30;;;8.60;99.90;;;;;;5018124;28;20050;-57
2023/03/25 07:29:38;;;;;;;8.57;4.65;;;8.60;99.90;;;;;;5029344;28;20052;-60
2023/03/25 07:32:04;;;;;;;6.97;4.22;;;8.60;99.90;;;;;;5026324;28;20524;-61
2023/03/25 07:34:30;;;;;;;10.60;5.20;;;8.60;99.90;;;;;;5020987;28;20105;-60
2023/03/25 07:36:55;;;;;;;9.77;4.95;;;8.70;99.90;;;;;;5029634;28;20096;-55
2023/03/25 07:39:24;;;;;;;4.72;3.60;;;8.70;99.90;;;;;;5020429;28;20022;-60
2023/03/25 07:41:50;;;;;;;6.75;4.10;;;8.80;99.90;;;;;;5029984;28;20083;-57
2023/03/25 07:44:15;;;;;;;9.25;4.68;;;8.90;99.90;;;;;;5023539;28;20054;-59
2023/03/25 07:46:41;;;;;;;11.18;4.03;;;8.90;99.90;;;;;;5029171;28;20064;-57
2023/03/25 07:49:06;;;;;;;3.95;3.45;;;8.90;99.90;;;;;;5021269;28;20041;-60
2023/03/25 07:51:33;;;;;;;7.50;3.95;;;8.80;99.90;;;;;;5018030;28;20023;-59
2023/03/25 07:53:59;;;;;;;10.02;3.55;;;8.90;99.90;;;;;;5016217;28;20026;-57
2023/03/25 07:56:25;;;;;;;5.82;3.20;;;8.80;99.90;;;;;;5028209;28;20442;-57
2023/03/25 07:58:50;;;;;;;8.50;3.70;;;8.80;99.90;;;;;;5017196;28;20074;-60
2023/03/25 08:01:16;;;;;;;7.50;3.35;;;8.80;99.90;;;;;;5021515;28;20034;-58
2023/03/25 08:03:41;;;;;;;5.30;3.78;;;8.70;99.90;;;;;;5021274;28;20086;-56
2023/03/25 08:06:07;;;;;;;10.07;3.33;;;8.80;99.90;;;;;;5024133;28;20116;-58
2023/03/25 08:08:33;;;;;;;5.90;3.40;;;8.80;99.90;;;;;;5026200;28;20026;-56
2023/03/25 08:10:59;;;;;;;7.20;3.75;;;8.80;99.90;;;;;;5021417;28;20033;-55
2023/03/25 08:13:25;;;;;;;8.55;3.40;;;8.90;99.90;;;;;;5026983;28;20025;-57
2023/03/25 08:15:51;;;;;;;6.63;2.90;;;8.90;99.90;;;;;;5020388;28;20048;-53
2023/03/25 08:18:17;;;;;;;5.78;3.50;;;9.00;99.90;;;;;;5022737;28;20033;-53
2023/03/25 08:20:42;;;;;;;9.32;3.50;;;9.00;99.90;;;;;;5016265;28;20026;-56
2023/03/25 08:23:09;;;;;;;4.88;3.03;;;9.10;99.90;;;;;;5021145;28;20032;-56
2023/03/25 08:25:39;;;;;;;4.25;2.70;;;9.20;99.90;;;;;;5025914;28;20403;-59
2023/03/25 08:28:05;;;;;;;6.30;3.47;;;9.10;99.90;;;;;;5021188;28;20183;-59
2023/03/25 08:30:37;;;;;;;5.40;2.90;;;9.10;99.90;;;;;;5024224;28;20496;-57
2023/03/25 08:33:08;;;;;;;6.03;3.33;;;9.10;99.90;;;;;;5023267;28;20026;-54
2023/03/25 08:35:35;;;;;;;7.63;2.72;;;9.10;99.90;;;;;;5020091;28;20037;-57
2023/03/25 08:38:04;;;;;;;5.57;2.58;;;9.00;99.90;;;;;;5023345;28;20051;-59
2023/03/25 08:40:30;;;;;;;5.43;2.65;;;9.00;99.90;;;;;;5022291;28;20033;-55
2023/03/25 08:42:56;;;;;;;10.35;3.22;;;8.90;99.90;;;;;;5021578;28;20064;-61
2023/03/25 08:45:22;;;;;;;6.07;3.10;;;8.90;99.90;;;;;;5024603;28;20057;-58
2023/03/25 08:47:47;;;;;;;6.78;2.90;;;8.90;99.90;;;;;;5022177;28;20072;-55
2023/03/25 08:50:13;;;;;;;10.55;3.53;;;9.00;99.90;;;;;;5022149;28;20033;-59
2023/03/25 08:52:38;;;;;;;8.23;3.30;;;9.00;99.90;;;;;;5011334;28;20025;-57
2023/03/25 08:55:08;;;;;;;6.80;2.72;;;9.10;99.90;;;;;;5023228;28;20025;-60
2023/03/25 08:57:35;;;;;;;7.50;3.28;;;9.20;99.90;;;;;;5019508;28;20052;-59
2023/03/25 09:00:01;;;;;;;5.47;2.35;;;9.20;99.90;;;;;;5019399;28;20079;-61
2023/03/25 09:02:27;;;;;;;4.70;2.53;;;9.20;99.90;;;;;;5014967;28;20365;-60
2023/03/25 09:04:53;;;;;;;4.13;2.50;;;9.20;99.90;;;;;;5022756;28;20033;-57
2023/03/25 09:07:19;;;;;;;8.25;3.10;;;9.30;99.90;;;;;;5016313;28;20050;-58
2023/03/25 09:09:45;;;;;;;8.85;3.20;;;9.30;99.90;;;;;;5024443;28;20488;-57
2023/03/25 09:12:11;;;;;;;4.07;2.15;;;9.30;99.90;;;;;;5009567;28;20081;-58
2023/03/25 09:14:37;;;;;;;7.63;2.83;;;9.20;99.90;;;;;;5025069;28;20037;-59
2023/03/25 09:17:05;;;;;;;3.08;2.17;;;9.20;99.90;;;;;;5019034;28;20034;-59
2023/03/25 09:19:32;;;;;;;4.20;2.72;;;9.00;99.90;;;;;;5009646;28;20469;-56
2023/03/25 09:21:58;;;;;;;6.03;2.17;;;8.90;99.90;;;;;;5011980;28;20168;-58
2023/03/25 09:24:23;;;;;;;5.35;2.22;;;8.90;99.90;;;;;;5018814;28;20100;-58
2023/03/25 09:26:49;;;;;;;3.55;1.77;;;8.90;99.90;;;;;;5016254;28;20506;-60
2023/03/25 09:29:15;;;;;;;4.28;1.40;;;8.90;99.90;;;;;;5012016;28;20022;-59
2023/03/25 09:31:40;;;;;;;2.58;1.73;;;8.80;99.90;;;;;;5018311;28;20033;-54
2023/03/25 09:34:07;;;;;;;2.28;1.20;;;8.80;99.90;;;;;;5011613;28;20057;-59
2023/03/25 09:36:33;;;;;;;3.70;1.40;;;8.90;99.90;;;;;;5024596;28;20021;-61
2023/03/25 09:38:59;;;;;;;3.00;1.60;;;8.90;99.90;;;;;;5014097;28;20562;-57
2023/03/25 09:41:46;;;;;;;3.30;1.45;;;8.90;99.90;;;;;;5024583;28;20071;-60
2023/03/25 09:44:19;;;;;;;2.20;1.60;;;9.00;99.90;;;;;;5018146;28;20041;-58
2023/03/25 09:46:46;;;;;;;3.20;1.08;;;9.00;99.90;;;;;;5020364;28;20049;-58
2023/03/25 09:49:22;;;;;;;4.47;1.40;;;9.10;99.90;;;;;;5023550;28;20335;-57
2023/03/25 09:51:50;;;;;;;3.30;0.85;;;9.00;99.90;;;;;;5009691;28;20477;-59
2023/03/25 09:54:24;;;;;;;2.22;0.90;;;9.10;99.90;;;;;;5017586;28;20038;-57
2023/03/25 09:56:51;;;;;;;3.00;1.38;;;9.00;99.90;;;;;;5017942;28;20029;-58
2023/03/25 09:59:24;;;;;;;3.22;1.35;;;8.90;99.90;;;;;;5021962;28;20377;-60
2023/03/25 10:02:05;;;;;;;5.50;1.65;;;9.00;99.90;;;;;;5017309;28;20046;-60
2023/03/25 10:04:55;;;;;;;1.33;0.90;;;8.90;99.90;;;;;;5021773;28;20115;-57
2023/03/25 10:07:56;;;;;;;2.97;1.25;;;8.90;99.90;;;;;;5013419;28;20025;-54
2023/03/25 10:10:34;;;;;;;2.13;1.02;;;8.90;99.90;;;;;;4994243;28;20574;-55
2023/03/25 10:13:31;;;;;;;3.80;1.20;;;9.00;99.90;;;;;;5015181;28;20014;-55
2023/03/25 10:16:15;;;;;;;2.72;1.13;;;9.00;99.90;;;;;;5010999;28;20087;-59
2023/03/25 10:19:03;;;;;;;7.28;1.50;;;9.20;99.90;;;;;;5017613;28;20037;-58
2023/03/25 10:21:40;;;;;;;2.67;1.20;;;9.20;99.90;;;;;;5024046;28;20428;-56
2023/03/25 10:24:23;;;;;;;5.40;1.23;;;9.30;99.90;;;;;;5017696;28;20021;-59
2023/03/25 10:26:58;;;;;;;2.63;1.33;;;9.50;99.90;;;;;;5023283;28;20052;-55
2023/03/25 10:29:38;;;;;;;2.65;1.05;;;9.70;99.90;;;;;;5015304;28;20025;-58
2023/03/25 10:32:16;;;;;;;2.95;1.40;;;10.00;99.90;;;;;;5015269;28;20026;-57
2023/03/25 10:34:49;;;;;;;3.25;1.23;;;10.30;99.90;;;;;;5008241;28;20034;-59
2023/03/25 10:37:30;;;;;;;5.55;2.13;;;10.40;99.90;;;;;;5009111;28;20124;-53
2023/03/25 10:40:11;;;;;;;3.75;1.20;;;10.50;99.90;;;;;;5013078;28;20040;-58
2023/03/25 10:42:42;;;;;;;6.18;1.60;;;10.70;99.90;;;;;;5018991;28;20033;-55
2023/03/25 10:45:13;;;;;;;5.40;1.65;;;10.70;99.90;;;;;;5016451;28;20434;-60
2023/03/25 10:47:41;;;;;;;4.60;1.85;;;10.60;99.90;;;;;;5019407;28;20022;-56
2023/03/25 10:50:14;;;;;;;2.78;1.38;;;10.60;99.90;;;;;;5018986;28;20337;-54
2023/03/25 10:52:40;;;;;;;2.38;1.70;;;10.70;99.90;;;;;;5008274;28;20117;-60
2023/03/25 10:55:36;;;;;;;4.47;1.80;;;10.70;99.90;;;;;;5021006;28;20029;-55
2023/03/25 10:58:03;;;;;;;3.85;2.00;;;10.70;99.90;;;;;;5013426;28;20527;-58
2023/03/25 11:00:29;;;;;;;5.65;1.88;;;10.50;99.90;;;;;;5015746;28;20047;-58
2023/03/25 11:02:55;;;;;;;2.63;1.52;;;10.40;99.90;;;;;;5022438;28;20557;-61
2023/03/25 11:05:24;;;;;;;3.90;1.90;;;10.30;99.90;;;;;;5017050;28;20079;-55
2023/03/25 11:07:54;;;;;;;4.03;2.47;;;10.20;99.90;;;;;;5014196;28;20103;-54
2023/03/25 11:10:28;;;;;;;3.15;2.28;;;10.10;99.90;;;;;;5012772;28;20026;-58
2023/03/25 11:12:57;;;;;;;3.60;2.20;;;9.90;99.90;;;;;;5016770;28;20100;-55
2023/03/25 11:15:34;;;;;;;3.70;2.25;;;9.90;99.90;;;;;;5016521;28;20022;-58
2023/03/25 11:18:37;;;;;;;6.93;2.65;;;9.80;99.90;;;;;;5001623;28;20033;-56
2023/03/25 11:21:08;;;;;;;2.50;1.80;;;9.60;99.90;;;;;;5016608;28;20030;-56
2023/03/25 11:23:35;;;;;;;4.18;2.10;;;9.40;99.90;;;;;;5013152;28;20072;-56
2023/03/25 11:26:05;;;;;;;2.10;1.58;;;9.20;99.90;;;;;;5024914;28;20549;-59
2023/03/25 11:28:42;;;;;;;3.45;1.35;;;9.00;99.90;;;;;;5013879;28;20092;-60
2023/03/25 11:31:26;;;;;;;1.05;0.73;;;8.90;99.90;;;;;;5020169;28;20455;-56
2023/03/25 11:34:11;;;;;;;1.52;0.88;;;8.60;99.90;;;;;;5019651;28;20048;-58
2023/03/25 11:36:51;;;;;;;1.85;0.90;;;8.50;99.90;;;;;;5023828;28;20442;-56
2023/03/25 11:39:39;;;;;;;1.83;0.70;;;8.30;99.90;;;;;;5017402;28;20030;-57
2023/03/25 11:42:37;;;;;;;1.23;0.50;;;8.20;99.90;;;;;;5007674;28;20057;-56
2023/03/25 11:45:04;;;;;;;1.85;0.85;;;8.10;99.90;;;;;;5011458;28;20026;-59
2023/03/25 11:47:36;;;;;;;1.77;0.70;;;8.20;99.90;;;;;;5014468;28;20038;-59
2023/03/25 11:50:04;;;;;;;3.65;0.70;;;8.30;99.90;;;;;;5023834;28;20099;-58
2023/03/25 11:52:44;;;;;;;1.38;0.80;;;8.60;99.90;;;;;;5017800;28;20043;-59
2023/03/25 11:55:26;;;;;;;2.70;0.80;;;8.80;99.90;;;;;;5018258;28;20032;-62
2023/03/25 11:57:53;;;;;;;2.75;1.00;;;9.20;99.90;;;;;;5018969;28;20545;-61
2023/03/25 12:00:38;;;;;;;2.83;1.00;;;9.40;99.90;;;;;;5011219;28;20036;-60
2023/03/25 12:03:13;;;;;;;4.00;1.30;;;9.70;99.90;;;;;;5019365;28;20041;-58
2023/03/25 12:05:39;;;;;;;2.55;1.48;;;9.80;99.90;;;;;;5022294;28;20029;-61
2023/03/25 12:08:15;;;;;;;2.22;1.30;;;10.00;99.90;;;;;;5028095;28;20018;-57
2023/03/25 12:11:06;;;;;;;2.28;1.17;;;10.00;99.90;;;;;;5012962;28;20029;-58
2023/03/25 12:13:59;;;;;;;3.28;1.42;;;10.20;99.90;;;;;;5021315;28;20029;-59
2023/03/25 12:16:53;;;;;;;2.03;1.65;;;10.30;99.90;;;;;;5019650;28;20026;-59
2023/03/25 12:19:48;;;;;;;3.50;1.15;;;10.50;99.90;;;;;;5019531;28;20033;-61
2023/03/25 12:22:42;;;;;;;1.35;1.20;;;10.60;99.90;;;;;;5009377;28;20030;-58
2023/03/25 12:25:25;;;;;;;2.65;1.13;;;10.60;99.90;;;;;;5023487;28;20041;-59
2023/03/25 12:28:04;;;;;;;1.67;1.20;;;10.60;99.90;;;;;;5016553;28;20028;-60
2023/03/25 12:31:03;;;;;;;3.15;1.15;;;10.50;99.90;;;;;;5026243;28;20040;-54
2023/03/25 12:34:03;;;;;;;3.63;1.05;;;10.40;99.90;;;;;;5025795;28;20044;-56
2023/03/25 12:36:50;;;;;;;5.55;1.02;;;10.30;99.90;;;;;;5015961;28;20056;-58
2023/03/25 12:39:52;;;;;;;3.85;1.17;;;10.30;99.90;;;;;;5021038;28;20072;-58
2023/03/25 12:42:45;;;;;;;4.50;1.27;;;10.20;99.90;;;;;;5014838;28;20049;-56
2023/03/25 12:45:31;;;;;;;4.78;1.17;;;10.10;99.90;;;;;;5009762;28;20186;-57
2023/03/25 12:48:13;;;;;;;1.08;0.85;;;10.10;99.90;;;;;;5026176;28;20480;-55
2023/03/25 12:51:20;;;;;;;2.92;1.00;;;10.00;99.90;;;;;;5019682;28;20030;-56
2023/03/25 12:53:56;;;;;;;4.07;1.27;;;10.00;99.90;;;;;;4998634;28;20127;-60
2023/03/25 12:56:22;;;;;;;3.90;2.65;;;9.90;99.90;;;;;;5027993;28;20021;-55
2023/03/25 12:59:12;;;;;;;4.00;1.80;;;9.80;99.90;;;;;;5019779;28;20037;-58
2023/03/25 13:01:46;;;;;;;3.00;1.27;;;9.70;99.90;;;;;;5016063;28;20484;-55
2023/03/25 13:04:11;;;;;;;4.30;1.38;;;9.70;99.90;;;;;;5017220;28;20034;-57
2023/03/25 13:06:44;;;;;;;4.65;2.40;;;9.60;99.90;;;;;;5018974;28;20060;-56
2023/03/25 13:09:19;;;;;;;6.43;1.25;;;9.50;99.90;;;;;;5024968;28;20124;-57
2023/03/25 13:11:53;;;;;;;6.05;1.40;;;9.40;99.90;;;;;;5021225;28;20026;-57
2023/03/25 13:14:28;;;;;;;2.00;1.23;;;9.30;99.90;;;;;;5021204;28;20082;-57
2023/03/25 13:16:59;;;;;;;8.00;1.65;;;9.20;99.90;;;;;;5015701;28;20030;-53
2023/03/25 13:19:27;;;;;;;4.90;0.95;;;9.20;99.90;;;;;;5019597;28;20024;-58